sensor_id;sensor_type;location;lat;lon;timestamp;temperature;humidity
4390;DHT22;2209;48.982;8.406;2022-12-24T00:00:05;14.10;99.90
4390;DHT22;2209;48.982;8.406;2022-12-24T00:02:27;14.10;99.90
4390;DHT22;2209;48.982;8.406;2022-12-24T00:04:49;14.10;99.90
4390;DHT22;2209;48.982;8.406;2022-12-24T00:07:12;14.00;99.90
4390;DHT22;2209;48.982;8.406;2022-12-24T00:09:35;14.00;99.90
4390;DHT22;2209;48.982;8.406;2022-12-24T00:11:57;14.00;99.90
4390;DHT22;2209;48.982;8.406;2022-12-24T00:14:19;14.00;99.90
4390;DHT22;2209;48.982;8.406;2022-12-24T00:16:42;14.00;99.90
4390;DHT22;2209;48.982;8.406;2022-12-24T00:19:04;13.90;99.90
4390;DHT22;2209;48.982;8.406;2022-12-24T00:21:26;13.90;99.90
4390;DHT22;2209;48.982;8.406;2022-12-24T00:23:48;13.90;99.90
4390;DHT22;2209;48.982;8.406;2022-12-24T00:26:14;13.90;99.90
4390;DHT22;2209;48.982;8.406;2022-12-24T00:28:36;13.90;99.90
4390;DHT22;2209;48.982;8.406;2022-12-24T00:30:58;14.00;99.90
4390;DHT22;2209;48.982;8.406;2022-12-24T00:33:20;13.90;99.90
4390;DHT22;2209;48.982;8.406;2022-12-24T00:35:42;13.90;99.90
4390;DHT22;2209;48.982;8.406;2022-12-24T00:38:05;13.90;99.90
4390;DHT22;2209;48.982;8.406;2022-12-24T00:40:28;13.90;99.90
4390;DHT22;2209;48.982;8.406;2022-12-24T00:42:52;13.80;99.90
4390;DHT22;2209;48.982;8.406;2022-12-24T00:45:14;13.80;99.90
4390;DHT22;2209;48.982;8.406;2022-12-24T00:47:36;13.80;99.90
4390;DHT22;2209;48.982;8.406;2022-12-24T00:49:59;13.70;99.90
4390;DHT22;2209;48.982;8.406;2022-12-24T00:52:22;13.70;99.90
4390;DHT22;2209;48.982;8.406;2022-12-24T00:54:44;13.70;99.90
4390;DHT22;2209;48.982;8.406;2022-12-24T00:57:06;13.70;99.90
4390;DHT22;2209;48.982;8.406;2022-12-24T00:59:29;13.70;99.90
4390;DHT22;2209;48.982;8.406;2022-12-24T01:01:51;13.70;99.90
4390;DHT22;2209;48.982;8.406;2022-12-24T01:04:14;13.80;99.90
4390;DHT22;2209;48.982;8.406;2022-12-24T01:06:53;13.80;99.90
4390;DHT22;2209;48.982;8.406;2022-12-24T01:09:16;13.80;99.90
4390;DHT22;2209;48.982;8.406;2022-12-24T01:11:38;13.80;99.90
4390;DHT22;2209;48.982;8.406;2022-12-24T01:14:01;13.80;99.90
4390;DHT22;2209;48.982;8.406;2022-12-24T01:16:24;13.80;99.90
4390;DHT22;2209;48.982;8.406;2022-12-24T01:18:46;13.70;99.90
4390;DHT22;2209;48.982;8.406;2022-12-24T01:21:09;13.70;99.90
4390;DHT22;2209;48.982;8.406;2022-12-24T01:23:31;13.70;99.90
4390;DHT22;2209;48.982;8.406;2022-12-24T01:25:53;13.70;99.90
4390;DHT22;2209;48.982;8.406;2022-12-24T01:28:15;13.70;99.90
4390;DHT22;2209;48.982;8.406;2022-12-24T01:30:39;13.70;99.90
4390;DHT22;2209;48.982;8.406;2022-12-24T01:33:03;13.70;99.90
4390;DHT22;2209;48.982;8.406;2022-12-24T01:35:25;13.70;99.90
4390;DHT22;2209;48.982;8.406;2022-12-24T01:37:47;13.70;99.90
4390;DHT22;2209;48.982;8.406;2022-12-24T01:40:15;13.70;99.90
4390;DHT22;2209;48.982;8.406;2022-12-24T01:42:54;13.70;99.90
4390;DHT22;2209;48.982;8.406;2022-12-24T01:45:41;13.70;99.90
4390;DHT22;2209;48.982;8.406;2022-12-24T01:48:13;13.70;99.90
4390;DHT22;2209;48.982;8.406;2022-12-24T01:50:37;13.70;99.90
4390;DHT22;2209;48.982;8.406;2022-12-24T01:52:59;13.70;99.90
4390;DHT22;2209;48.982;8.406;2022-12-24T01:55:21;13.70;99.90
4390;DHT22;2209;48.982;8.406;2022-12-24T01:57:47;13.70;99.90
4390;DHT22;2209;48.982;8.406;2022-12-24T02:00:12;13.70;99.90
4390;DHT22;2209;48.982;8.406;2022-12-24T02:02:35;13.70;99.90
4390;DHT22;2209;48.982;8.406;2022-12-24T02:05:02;13.70;99.90
4390;DHT22;2209;48.982;8.406;2022-12-24T02:07:26;13.70;99.90
4390;DHT22;2209;48.982;8.406;2022-12-24T02:09:48;13.70;99.90
4390;DHT22;2209;48.982;8.406;2022-12-24T02:12:12;13.70;99.90
4390;DHT22;2209;48.982;8.406;2022-12-24T02:14:35;13.60;99.90
4390;DHT22;2209;48.982;8.406;2022-12-24T02:17:01;13.60;99.90
4390;DHT22;2209;48.982;8.406;2022-12-24T02:22:28;13.60;99.90
4390;DHT22;2209;48.982;8.406;2022-12-24T02:25:10;13.60;99.90
4390;DHT22;2209;48.982;8.406;2022-12-24T02:27:46;13.50;99.90
4390;DHT22;2209;48.982;8.406;2022-12-24T02:30:17;13.60;99.90
4390;DHT22;2209;48.982;8.406;2022-12-24T02:32:47;13.50;99.90
4390;DHT22;2209;48.982;8.406;2022-12-24T02:35:16;13.50;99.90
4390;DHT22;2209;48.982;8.406;2022-12-24T02:37:43;13.50;99.90
4390;DHT22;2209;48.982;8.406;2022-12-24T02:40:09;13.50;99.90
4390;DHT22;2209;48.982;8.406;2022-12-24T02:42:36;13.50;99.90
4390;DHT22;2209;48.982;8.406;2022-12-24T02:45:02;13.50;99.90
4390;DHT22;2209;48.982;8.406;2022-12-24T02:47:29;13.50;99.90
4390;DHT22;2209;48.982;8.406;2022-12-24T02:49:52;13.50;99.90
4390;DHT22;2209;48.982;8.406;2022-12-24T02:52:28;13.50;99.90
4390;DHT22;2209;48.982;8.406;2022-12-24T02:54:50;13.50;99.90
4390;DHT22;2209;48.982;8.406;2022-12-24T02:57:18;13.50;99.90
4390;DHT22;2209;48.982;8.406;2022-12-24T02:59:56;13.50;99.90
4390;DHT22;2209;48.982;8.406;2022-12-24T03:02:28;13.50;99.90
4390;DHT22;2209;48.982;8.406;2022-12-24T03:04:59;13.50;99.90
4390;DHT22;2209;48.982;8.406;2022-12-24T03:07:29;13.50;99.90
4390;DHT22;2209;48.982;8.406;2022-12-24T03:10:04;13.50;99.90
4390;DHT22;2209;48.982;8.406;2022-12-24T03:12:31;13.50;99.90
4390;DHT22;2209;48.982;8.406;2022-12-24T03:14:54;13.50;99.90
4390;DHT22;2209;48.982;8.406;2022-12-24T03:17:18;13.60;99.90
4390;DHT22;2209;48.982;8.406;2022-12-24T03:19:42;13.50;99.90
4390;DHT22;2209;48.982;8.406;2022-12-24T03:22:08;13.50;99.90
4390;DHT22;2209;48.982;8.406;2022-12-24T03:24:30;13.50;99.90
4390;DHT22;2209;48.982;8.406;2022-12-24T03:26:52;13.50;99.90
4390;DHT22;2209;48.982;8.406;2022-12-24T03:29:15;13.50;99.90
4390;DHT22;2209;48.982;8.406;2022-12-24T03:31:45;13.50;99.90
4390;DHT22;2209;48.982;8.406;2022-12-24T03:34:08;13.50;99.90
4390;DHT22;2209;48.982;8.406;2022-12-24T03:36:31;13.50;99.90
4390;DHT22;2209;48.982;8.406;2022-12-24T03:38:53;13.50;99.90
4390;DHT22;2209;48.982;8.406;2022-12-24T03:41:15;13.50;99.90
4390;DHT22;2209;48.982;8.406;2022-12-24T03:43:37;13.60;99.90
4390;DHT22;2209;48.982;8.406;2022-12-24T03:46:03;13.50;99.90
4390;DHT22;2209;48.982;8.406;2022-12-24T03:48:25;13.50;99.90
4390;DHT22;2209;48.982;8.406;2022-12-24T03:50:47;13.50;99.90
4390;DHT22;2209;48.982;8.406;2022-12-24T03:53:11;13.50;99.90
4390;DHT22;2209;48.982;8.406;2022-12-24T03:55:33;13.50;99.90
4390;DHT22;2209;48.982;8.406;2022-12-24T03:57:55;13.50;99.90
4390;DHT22;2209;48.982;8.406;2022-12-24T04:00:18;13.50;99.90
4390;DHT22;2209;48.982;8.406;2022-12-24T04:02:40;13.50;99.90
4390;DHT22;2209;48.982;8.406;2022-12-24T04:05:03;13.50;99.90
4390;DHT22;2209;48.982;8.406;2022-12-24T04:07:25;13.50;99.90
4390;DHT22;2209;48.982;8.406;2022-12-24T04:09:49;13.50;99.90
4390;DHT22;2209;48.982;8.406;2022-12-24T04:12:11;13.50;99.90
4390;DHT22;2209;48.982;8.406;2022-12-24T04:14:33;13.40;99.90
4390;DHT22;2209;48.982;8.406;2022-12-24T04:16:55;13.50;99.90
4390;DHT22;2209;48.982;8.406;2022-12-24T04:19:17;13.50;99.90
4390;DHT22;2209;48.982;8.406;2022-12-24T04:21:39;13.40;99.90
4390;DHT22;2209;48.982;8.406;2022-12-24T04:24:01;13.40;99.90
4390;DHT22;2209;48.982;8.406;2022-12-24T04:26:24;13.40;99.90
4390;DHT22;2209;48.982;8.406;2022-12-24T04:28:47;13.40;99.90
4390;DHT22;2209;48.982;8.406;2022-12-24T04:31:11;13.40;99.90
4390;DHT22;2209;48.982;8.406;2022-12-24T04:33:37;13.40;99.90
4390;DHT22;2209;48.982;8.406;2022-12-24T04:36:01;13.40;99.90
4390;DHT22;2209;48.982;8.406;2022-12-24T04:38:23;13.30;99.90
4390;DHT22;2209;48.982;8.406;2022-12-24T04:40:45;13.30;99.90
4390;DHT22;2209;48.982;8.406;2022-12-24T04:43:08;13.30;99.90
4390;DHT22;2209;48.982;8.406;2022-12-24T04:45:31;13.30;99.90
4390;DHT22;2209;48.982;8.406;2022-12-24T04:47:53;13.30;99.90
4390;DHT22;2209;48.982;8.406;2022-12-24T04:50:15;13.30;99.90
4390;DHT22;2209;48.982;8.406;2022-12-24T04:52:37;13.20;99.90
4390;DHT22;2209;48.982;8.406;2022-12-24T04:54:59;13.20;99.90
4390;DHT22;2209;48.982;8.406;2022-12-24T04:57:22;13.30;99.90
4390;DHT22;2209;48.982;8.406;2022-12-24T04:59:45;13.30;99.90
4390;DHT22;2209;48.982;8.406;2022-12-24T05:02:07;13.30;99.90
4390;DHT22;2209;48.982;8.406;2022-12-24T05:04:29;13.30;99.90
4390;DHT22;2209;48.982;8.406;2022-12-24T05:06:51;13.30;99.90
4390;DHT22;2209;48.982;8.406;2022-12-24T05:09:13;13.30;99.90
4390;DHT22;2209;48.982;8.406;2022-12-24T05:11:36;13.30;99.90
4390;DHT22;2209;48.982;8.406;2022-12-24T05:13:58;13.30;99.90
4390;DHT22;2209;48.982;8.406;2022-12-24T05:16:22;13.20;99.90
4390;DHT22;2209;48.982;8.406;2022-12-24T05:18:44;13.20;99.90
4390;DHT22;2209;48.982;8.406;2022-12-24T05:21:08;13.20;99.90
4390;DHT22;2209;48.982;8.406;2022-12-24T05:23:30;13.20;99.90
4390;DHT22;2209;48.982;8.406;2022-12-24T05:26:14;13.20;99.90
4390;DHT22;2209;48.982;8.406;2022-12-24T05:28:45;13.30;99.90
4390;DHT22;2209;48.982;8.406;2022-12-24T05:31:07;13.20;99.90
4390;DHT22;2209;48.982;8.406;2022-12-24T05:33:30;13.20;99.90
4390;DHT22;2209;48.982;8.406;2022-12-24T05:39:13;13.10;99.90
4390;DHT22;2209;48.982;8.406;2022-12-24T05:41:36;13.20;99.90
4390;DHT22;2209;48.982;8.406;2022-12-24T05:43:59;13.20;99.90
4390;DHT22;2209;48.982;8.406;2022-12-24T05:46:23;13.20;99.90
4390;DHT22;2209;48.982;8.406;2022-12-24T05:48:48;13.10;99.90
4390;DHT22;2209;48.982;8.406;2022-12-24T05:51:12;13.10;99.90
4390;DHT22;2209;48.982;8.406;2022-12-24T05:53:36;13.20;99.90
4390;DHT22;2209;48.982;8.406;2022-12-24T05:56:04;13.20;99.90
4390;DHT22;2209;48.982;8.406;2022-12-24T05:58:36;13.20;99.90
4390;DHT22;2209;48.982;8.406;2022-12-24T06:01:03;13.30;99.90
4390;DHT22;2209;48.982;8.406;2022-12-24T06:03:27;13.30;99.90
4390;DHT22;2209;48.982;8.406;2022-12-24T06:05:59;13.20;99.90
4390;DHT22;2209;48.982;8.406;2022-12-24T06:08:21;13.20;99.90
4390;DHT22;2209;48.982;8.406;2022-12-24T06:10:44;13.30;99.90
4390;DHT22;2209;48.982;8.406;2022-12-24T06:13:06;13.20;99.90
4390;DHT22;2209;48.982;8.406;2022-12-24T06:15:29;13.30;99.90
4390;DHT22;2209;48.982;8.406;2022-12-24T06:17:51;13.30;99.90
4390;DHT22;2209;48.982;8.406;2022-12-24T06:20:16;13.30;99.90
4390;DHT22;2209;48.982;8.406;2022-12-24T06:22:39;13.30;99.90
4390;DHT22;2209;48.982;8.406;2022-12-24T06:25:02;13.30;99.90
4390;DHT22;2209;48.982;8.406;2022-12-24T06:27:25;13.20;99.90
4390;DHT22;2209;48.982;8.406;2022-12-24T06:29:47;13.20;99.90
4390;DHT22;2209;48.982;8.406;2022-12-24T06:32:09;13.20;99.90
4390;DHT22;2209;48.982;8.406;2022-12-24T06:34:31;13.20;99.90
4390;DHT22;2209;48.982;8.406;2022-12-24T06:36:53;13.20;99.90
4390;DHT22;2209;48.982;8.406;2022-12-24T06:39:17;13.20;99.90
4390;DHT22;2209;48.982;8.406;2022-12-24T06:41:39;13.30;99.90
4390;DHT22;2209;48.982;8.406;2022-12-24T06:44:01;13.30;99.90
4390;DHT22;2209;48.982;8.406;2022-12-24T06:46:23;13.20;99.90
4390;DHT22;2209;48.982;8.406;2022-12-24T06:48:46;13.30;99.90
4390;DHT22;2209;48.982;8.406;2022-12-24T06:51:10;13.20;99.90
4390;DHT22;2209;48.982;8.406;2022-12-24T06:53:35;13.20;99.90
4390;DHT22;2209;48.982;8.406;2022-12-24T06:56:02;13.20;99.90
4390;DHT22;2209;48.982;8.406;2022-12-24T06:58:24;13.20;99.90
4390;DHT22;2209;48.982;8.406;2022-12-24T07:00:47;13.20;99.90
4390;DHT22;2209;48.982;8.406;2022-12-24T07:03:09;13.20;99.90
4390;DHT22;2209;48.982;8.406;2022-12-24T07:05:32;13.20;99.90
4390;DHT22;2209;48.982;8.406;2022-12-24T07:07:54;13.20;99.90
4390;DHT22;2209;48.982;8.406;2022-12-24T07:10:17;13.30;99.90
4390;DHT22;2209;48.982;8.406;2022-12-24T07:12:42;13.20;99.90
4390;DHT22;2209;48.982;8.406;2022-12-24T07:15:05;13.20;99.90
4390;DHT22;2209;48.982;8.406;2022-12-24T07:17:27;13.30;99.90
4390;DHT22;2209;48.982;8.406;2022-12-24T07:19:49;13.30;99.90
4390;DHT22;2209;48.982;8.406;2022-12-24T07:22:11;13.20;99.90
4390;DHT22;2209;48.982;8.406;2022-12-24T07:24:33;13.20;99.90
4390;DHT22;2209;48.982;8.406;2022-12-24T07:26:55;13.30;99.90
4390;DHT22;2209;48.982;8.406;2022-12-24T07:29:19;13.30;99.90
4390;DHT22;2209;48.982;8.406;2022-12-24T07:31:41;13.30;99.90
4390;DHT22;2209;48.982;8.406;2022-12-24T07:34:04;13.20;99.90
4390;DHT22;2209;48.982;8.406;2022-12-24T07:36:26;13.20;99.90
4390;DHT22;2209;48.982;8.406;2022-12-24T07:38:49;13.20;99.90
4390;DHT22;2209;48.982;8.406;2022-12-24T07:41:12;13.20;99.90
4390;DHT22;2209;48.982;8.406;2022-12-24T07:43:35;13.20;99.90
4390;DHT22;2209;48.982;8.406;2022-12-24T07:45:58;13.20;99.90
4390;DHT22;2209;48.982;8.406;2022-12-24T07:48:22;13.20;99.90
4390;DHT22;2209;48.982;8.406;2022-12-24T07:50:51;13.20;99.90
4390;DHT22;2209;48.982;8.406;2022-12-24T07:53:14;13.10;99.90
4390;DHT22;2209;48.982;8.406;2022-12-24T07:55:53;13.10;99.90
4390;DHT22;2209;48.982;8.406;2022-12-24T07:58:33;13.10;99.90
4390;DHT22;2209;48.982;8.406;2022-12-24T08:01:02;13.10;99.90
4390;DHT22;2209;48.982;8.406;2022-12-24T08:03:24;13.20;99.90
4390;DHT22;2209;48.982;8.406;2022-12-24T08:05:47;13.10;99.90
4390;DHT22;2209;48.982;8.406;2022-12-24T08:08:09;13.10;99.90
4390;DHT22;2209;48.982;8.406;2022-12-24T08:10:31;13.10;99.90
4390;DHT22;2209;48.982;8.406;2022-12-24T08:12:53;13.10;99.90
4390;DHT22;2209;48.982;8.406;2022-12-24T08:15:16;13.10;99.90
4390;DHT22;2209;48.982;8.406;2022-12-24T08:17:39;13.10;99.90
4390;DHT22;2209;48.982;8.406;2022-12-24T08:20:01;13.20;99.90
4390;DHT22;2209;48.982;8.406;2022-12-24T08:22:23;13.20;99.90
4390;DHT22;2209;48.982;8.406;2022-12-24T08:24:46;13.10;99.90
4390;DHT22;2209;48.982;8.406;2022-12-24T08:27:08;13.10;99.90
4390;DHT22;2209;48.982;8.406;2022-12-24T08:29:31;13.10;99.90
4390;DHT22;2209;48.982;8.406;2022-12-24T08:31:53;13.10;99.90
4390;DHT22;2209;48.982;8.406;2022-12-24T08:34:16;13.10;99.90
4390;DHT22;2209;48.982;8.406;2022-12-24T08:36:39;13.10;99.90
4390;DHT22;2209;48.982;8.406;2022-12-24T08:39:03;13.10;99.90
4390;DHT22;2209;48.982;8.406;2022-12-24T08:41:25;13.10;99.90
4390;DHT22;2209;48.982;8.406;2022-12-24T08:43:47;13.10;99.90
4390;DHT22;2209;48.982;8.406;2022-12-24T08:46:09;13.10;99.90
4390;DHT22;2209;48.982;8.406;2022-12-24T08:48:33;13.10;99.90
4390;DHT22;2209;48.982;8.406;2022-12-24T08:50:56;13.10;99.90
4390;DHT22;2209;48.982;8.406;2022-12-24T08:53:19;13.10;99.90
4390;DHT22;2209;48.982;8.406;2022-12-24T08:55:41;13.10;99.90
4390;DHT22;2209;48.982;8.406;2022-12-24T08:58:03;13.10;99.90
4390;DHT22;2209;48.982;8.406;2022-12-24T09:00:25;13.10;99.90
4390;DHT22;2209;48.982;8.406;2022-12-24T09:02:48;13.10;99.90
4390;DHT22;2209;48.982;8.406;2022-12-24T09:05:10;13.10;99.90
4390;DHT22;2209;48.982;8.406;2022-12-24T09:07:33;13.00;99.90
4390;DHT22;2209;48.982;8.406;2022-12-24T09:09:55;13.10;99.90
4390;DHT22;2209;48.982;8.406;2022-12-24T09:12:17;13.10;99.90
4390;DHT22;2209;48.982;8.406;2022-12-24T09:14:40;13.00;99.90
4390;DHT22;2209;48.982;8.406;2022-12-24T09:17:02;13.10;99.90
4390;DHT22;2209;48.982;8.406;2022-12-24T09:19:24;13.10;99.90
4390;DHT22;2209;48.982;8.406;2022-12-24T09:21:46;13.10;99.90
4390;DHT22;2209;48.982;8.406;2022-12-24T09:24:09;13.20;99.90
4390;DHT22;2209;48.982;8.406;2022-12-24T09:26:31;13.20;99.90
4390;DHT22;2209;48.982;8.406;2022-12-24T09:28:56;13.20;99.90
4390;DHT22;2209;48.982;8.406;2022-12-24T09:31:20;13.20;99.90
4390;DHT22;2209;48.982;8.406;2022-12-24T09:33:43;13.20;99.90
4390;DHT22;2209;48.982;8.406;2022-12-24T09:36:06;13.20;99.90
4390;DHT22;2209;48.982;8.406;2022-12-24T09:38:28;13.20;99.90
4390;DHT22;2209;48.982;8.406;2022-12-24T09:40:53;13.20;99.90
4390;DHT22;2209;48.982;8.406;2022-12-24T09:43:18;13.20;99.90
4390;DHT22;2209;48.982;8.406;2022-12-24T09:45:46;13.20;99.90
4390;DHT22;2209;48.982;8.406;2022-12-24T09:48:13;13.10;99.90
4390;DHT22;2209;48.982;8.406;2022-12-24T09:50:39;13.10;99.90
4390;DHT22;2209;48.982;8.406;2022-12-24T09:53:04;13.20;99.90
4390;DHT22;2209;48.982;8.406;2022-12-24T09:55:33;13.20;99.90
4390;DHT22;2209;48.982;8.406;2022-12-24T09:58:00;13.10;99.90
4390;DHT22;2209;48.982;8.406;2022-12-24T10:00:25;13.10;99.90
4390;DHT22;2209;48.982;8.406;2022-12-24T10:02:48;13.10;99.90
4390;DHT22;2209;48.982;8.406;2022-12-24T10:05:13;13.10;99.90
4390;DHT22;2209;48.982;8.406;2022-12-24T10:07:44;13.10;99.90
4390;DHT22;2209;48.982;8.406;2022-12-24T10:10:16;13.10;99.90
4390;DHT22;2209;48.982;8.406;2022-12-24T10:12:45;13.10;99.90
4390;DHT22;2209;48.982;8.406;2022-12-24T10:15:20;13.10;99.90
4390;DHT22;2209;48.982;8.406;2022-12-24T10:17:56;13.10;99.90
4390;DHT22;2209;48.982;8.406;2022-12-24T10:20:29;13.00;99.90
4390;DHT22;2209;48.982;8.406;2022-12-24T10:22:59;13.00;99.90
4390;DHT22;2209;48.982;8.406;2022-12-24T10:25:26;13.00;99.90
4390;DHT22;2209;48.982;8.406;2022-12-24T10:27:50;13.00;99.90
4390;DHT22;2209;48.982;8.406;2022-12-24T10:31:38;13.10;99.90
4390;DHT22;2209;48.982;8.406;2022-12-24T10:33:40;13.00;99.90
4390;DHT22;2209;48.982;8.406;2022-12-24T10:36:10;12.90;99.90
4390;DHT22;2209;48.982;8.406;2022-12-24T10:38:35;13.00;99.90
4390;DHT22;2209;48.982;8.406;2022-12-24T10:40:59;13.00;99.90
4390;DHT22;2209;48.982;8.406;2022-12-24T10:43:24;12.90;99.90
4390;DHT22;2209;48.982;8.406;2022-12-24T10:45:50;13.00;99.90
4390;DHT22;2209;48.982;8.406;2022-12-24T10:48:18;13.00;99.90
4390;DHT22;2209;48.982;8.406;2022-12-24T10:50:51;13.00;99.90
4390;DHT22;2209;48.982;8.406;2022-12-24T10:53:18;13.00;99.90
4390;DHT22;2209;48.982;8.406;2022-12-24T10:55:42;12.90;99.90
4390;DHT22;2209;48.982;8.406;2022-12-24T10:58:10;13.00;99.90
4390;DHT22;2209;48.982;8.406;2022-12-24T11:00:34;12.90;99.90
4390;DHT22;2209;48.982;8.406;2022-12-24T11:03:23;12.90;99.90
4390;DHT22;2209;48.982;8.406;2022-12-24T11:06:07;12.90;99.90
4390;DHT22;2209;48.982;8.406;2022-12-24T11:08:30;12.90;99.90
4390;DHT22;2209;48.982;8.406;2022-12-24T11:10:56;12.90;99.90
4390;DHT22;2209;48.982;8.406;2022-12-24T11:13:22;12.90;99.90
4390;DHT22;2209;48.982;8.406;2022-12-24T11:15:46;12.90;99.90
4390;DHT22;2209;48.982;8.406;2022-12-24T11:18:14;13.00;99.90
4390;DHT22;2209;48.982;8.406;2022-12-24T11:20:36;13.00;99.90
4390;DHT22;2209;48.982;8.406;2022-12-24T11:22:59;13.00;99.90
4390;DHT22;2209;48.982;8.406;2022-12-24T11:25:25;13.00;99.90
4390;DHT22;2209;48.982;8.406;2022-12-24T11:27:50;13.00;99.90
4390;DHT22;2209;48.982;8.406;2022-12-24T11:30:26;13.00;99.90
4390;DHT22;2209;48.982;8.406;2022-12-24T11:33:20;13.00;99.90
4390;DHT22;2209;48.982;8.406;2022-12-24T11:35:45;12.90;99.90
4390;DHT22;2209;48.982;8.406;2022-12-24T11:38:09;12.90;99.90
4390;DHT22;2209;48.982;8.406;2022-12-24T11:40:34;12.90;99.90
4390;DHT22;2209;48.982;8.406;2022-12-24T11:42:58;13.00;99.90
4390;DHT22;2209;48.982;8.406;2022-12-24T11:45:23;13.00;99.90
4390;DHT22;2209;48.982;8.406;2022-12-24T11:47:45;13.00;99.90
4390;DHT22;2209;48.982;8.406;2022-12-24T11:50:25;13.00;99.90
4390;DHT22;2209;48.982;8.406;2022-12-24T11:52:49;13.00;99.90
4390;DHT22;2209;48.982;8.406;2022-12-24T11:55:17;13.00;99.90
4390;DHT22;2209;48.982;8.406;2022-12-24T11:57:47;13.00;99.90
4390;DHT22;2209;48.982;8.406;2022-12-24T12:00:11;13.00;99.90
4390;DHT22;2209;48.982;8.406;2022-12-24T12:02:36;13.00;99.90
4390;DHT22;2209;48.982;8.406;2022-12-24T12:05:03;13.00;99.90
4390;DHT22;2209;48.982;8.406;2022-12-24T12:07:29;13.00;99.90
4390;DHT22;2209;48.982;8.406;2022-12-24T12:09:56;13.00;99.90
4390;DHT22;2209;48.982;8.406;2022-12-24T12:12:22;13.00;99.90
4390;DHT22;2209;48.982;8.406;2022-12-24T12:14:50;13.00;99.90
4390;DHT22;2209;48.982;8.406;2022-12-24T12:17:21;13.00;99.90
4390;DHT22;2209;48.982;8.406;2022-12-24T12:19:48;13.00;99.90
4390;DHT22;2209;48.982;8.406;2022-12-24T12:22:22;13.00;99.90
4390;DHT22;2209;48.982;8.406;2022-12-24T12:24:51;13.00;99.90
4390;DHT22;2209;48.982;8.406;2022-12-24T12:27:19;13.00;99.90
4390;DHT22;2209;48.982;8.406;2022-12-24T12:29:48;13.10;99.90
4390;DHT22;2209;48.982;8.406;2022-12-24T12:32:17;13.10;99.90
4390;DHT22;2209;48.982;8.406;2022-12-24T12:34:48;13.10;99.90
4390;DHT22;2209;48.982;8.406;2022-12-24T12:37:17;13.10;99.90
4390;DHT22;2209;48.982;8.406;2022-12-24T12:39:41;13.20;99.90
4390;DHT22;2209;48.982;8.406;2022-12-24T12:42:13;13.20;99.90
4390;DHT22;2209;48.982;8.406;2022-12-24T12:44:49;13.20;99.90
4390;DHT22;2209;48.982;8.406;2022-12-24T12:47:26;13.20;99.90
4390;DHT22;2209;48.982;8.406;2022-12-24T12:50:00;13.30;99.90
4390;DHT22;2209;48.982;8.406;2022-12-24T12:52:40;13.30;99.90
4390;DHT22;2209;48.982;8.406;2022-12-24T12:55:18;13.30;99.90
4390;DHT22;2209;48.982;8.406;2022-12-24T12:57:45;13.30;99.90
4390;DHT22;2209;48.982;8.406;2022-12-24T13:00:11;13.20;99.90
4390;DHT22;2209;48.982;8.406;2022-12-24T13:02:55;13.30;99.90
4390;DHT22;2209;48.982;8.406;2022-12-24T13:05:57;13.20;99.90
4390;DHT22;2209;48.982;8.406;2022-12-24T13:09:42;13.20;99.90
4390;DHT22;2209;48.982;8.406;2022-12-24T13:12:19;13.30;99.90
4390;DHT22;2209;48.982;8.406;2022-12-24T13:14:56;13.30;99.90
4390;DHT22;2209;48.982;8.406;2022-12-24T13:17:45;13.30;99.90
4390;DHT22;2209;48.982;8.406;2022-12-24T13:20:18;13.30;99.90
4390;DHT22;2209;48.982;8.406;2022-12-24T13:22:52;13.30;99.90
4390;DHT22;2209;48.982;8.406;2022-12-24T13:25:21;13.30;99.90
4390;DHT22;2209;48.982;8.406;2022-12-24T13:27:44;13.30;99.90
4390;DHT22;2209;48.982;8.406;2022-12-24T13:30:32;13.30;99.90
4390;DHT22;2209;48.982;8.406;2022-12-24T13:32:55;13.30;99.90
4390;DHT22;2209;48.982;8.406;2022-12-24T13:35:35;13.20;99.90
4390;DHT22;2209;48.982;8.406;2022-12-24T13:38:38;13.20;99.90
4390;DHT22;2209;48.982;8.406;2022-12-24T13:41:37;13.20;99.90
4390;DHT22;2209;48.982;8.406;2022-12-24T13:44:01;13.20;99.90
4390;DHT22;2209;48.982;8.406;2022-12-24T13:46:46;13.20;99.90
4390;DHT22;2209;48.982;8.406;2022-12-24T13:49:18;13.20;99.90
4390;DHT22;2209;48.982;8.406;2022-12-24T13:51:40;13.20;99.90
4390;DHT22;2209;48.982;8.406;2022-12-24T13:54:02;13.20;99.90
4390;DHT22;2209;48.982;8.406;2022-12-24T13:56:25;13.20;99.90
4390;DHT22;2209;48.982;8.406;2022-12-24T13:58:51;13.20;99.90
4390;DHT22;2209;48.982;8.406;2022-12-24T14:01:18;13.20;99.90
4390;DHT22;2209;48.982;8.406;2022-12-24T14:03:45;13.20;99.90
4390;DHT22;2209;48.982;8.406;2022-12-24T14:06:10;13.20;99.90
4390;DHT22;2209;48.982;8.406;2022-12-24T14:08:37;13.20;99.90
4390;DHT22;2209;48.982;8.406;2022-12-24T14:11:09;13.30;99.90
4390;DHT22;2209;48.982;8.406;2022-12-24T14:14:19;13.20;99.90
4390;DHT22;2209;48.982;8.406;2022-12-24T14:16:50;13.30;99.90
4390;DHT22;2209;48.982;8.406;2022-12-24T14:19:19;13.30;99.90
4390;DHT22;2209;48.982;8.406;2022-12-24T14:22:13;13.20;99.90
4390;DHT22;2209;48.982;8.406;2022-12-24T14:24:42;13.30;99.90
4390;DHT22;2209;48.982;8.406;2022-12-24T14:27:13;13.20;99.90
4390;DHT22;2209;48.982;8.406;2022-12-24T14:29:43;13.30;99.90
4390;DHT22;2209;48.982;8.406;2022-12-24T14:32:12;13.30;99.90
4390;DHT22;2209;48.982;8.406;2022-12-24T14:34:37;13.30;99.90
4390;DHT22;2209;48.982;8.406;2022-12-24T14:37:02;13.30;99.90
4390;DHT22;2209;48.982;8.406;2022-12-24T14:39:27;13.30;99.90
4390;DHT22;2209;48.982;8.406;2022-12-24T14:41:59;13.30;99.90
4390;DHT22;2209;48.982;8.406;2022-12-24T14:44:29;13.30;99.90
4390;DHT22;2209;48.982;8.406;2022-12-24T14:46:56;13.30;99.90
4390;DHT22;2209;48.982;8.406;2022-12-24T14:49:30;13.30;99.90
4390;DHT22;2209;48.982;8.406;2022-12-24T14:52:03;13.30;99.90
4390;DHT22;2209;48.982;8.406;2022-12-24T14:54:34;13.30;99.90
4390;DHT22;2209;48.982;8.406;2022-12-24T14:57:21;13.30;99.90
4390;DHT22;2209;48.982;8.406;2022-12-24T14:59:47;13.30;99.90
4390;DHT22;2209;48.982;8.406;2022-12-24T15:02:37;13.30;99.90
4390;DHT22;2209;48.982;8.406;2022-12-24T15:05:13;13.30;99.90
4390;DHT22;2209;48.982;8.406;2022-12-24T15:07:40;13.30;99.90
4390;DHT22;2209;48.982;8.406;2022-12-24T15:10:04;13.20;99.90
4390;DHT22;2209;48.982;8.406;2022-12-24T15:12:28;13.30;99.90
4390;DHT22;2209;48.982;8.406;2022-12-24T15:14:51;13.30;99.90
4390;DHT22;2209;48.982;8.406;2022-12-24T15:17:13;13.30;99.90
4390;DHT22;2209;48.982;8.406;2022-12-24T15:19:38;13.30;99.90
4390;DHT22;2209;48.982;8.406;2022-12-24T15:22:07;13.20;99.90
4390;DHT22;2209;48.982;8.406;2022-12-24T15:24:32;13.30;99.90
4390;DHT22;2209;48.982;8.406;2022-12-24T15:26:56;13.30;99.90
4390;DHT22;2209;48.982;8.406;2022-12-24T15:29:21;13.20;99.90
4390;DHT22;2209;48.982;8.406;2022-12-24T15:31:44;13.20;99.90
4390;DHT22;2209;48.982;8.406;2022-12-24T15:34:25;13.20;99.90
4390;DHT22;2209;48.982;8.406;2022-12-24T15:36:47;13.30;99.90
4390;DHT22;2209;48.982;8.406;2022-12-24T15:39:14;13.30;99.90
4390;DHT22;2209;48.982;8.406;2022-12-24T15:41:40;13.20;99.90
4390;DHT22;2209;48.982;8.406;2022-12-24T15:44:24;13.20;99.90
4390;DHT22;2209;48.982;8.406;2022-12-24T15:46:46;13.30;99.90
4390;DHT22;2209;48.982;8.406;2022-12-24T15:49:14;13.30;99.90
4390;DHT22;2209;48.982;8.406;2022-12-24T15:51:37;13.30;99.90
4390;DHT22;2209;48.982;8.406;2022-12-24T15:54:02;13.30;99.90
4390;DHT22;2209;48.982;8.406;2022-12-24T15:56:34;13.20;99.90
4390;DHT22;2209;48.982;8.406;2022-12-24T15:59:20;13.20;99.90
4390;DHT22;2209;48.982;8.406;2022-12-24T16:01:45;13.30;99.90
4390;DHT22;2209;48.982;8.406;2022-12-24T16:04:12;13.30;99.90